createdAt,value
2018-03-06T00:00:27.114Z,25.10
2018-03-06T00:02:55.696Z,21.62
2018-03-06T00:05:23.268Z,24.60
2018-03-06T00:07:50.984Z,24.20
2018-03-06T00:10:18.704Z,19.67
2018-03-06T00:12:46.988Z,21.10
2018-03-06T00:15:14.620Z,20.27
2018-03-06T00:17:42.302Z,21.30
2018-03-06T00:20:10.212Z,22.92
2018-03-06T00:22:38.184Z,24.60
2018-03-06T00:25:05.943Z,20.50
2018-03-06T00:27:33.642Z,22.95
2018-03-06T00:30:01.272Z,27.07
2018-03-06T00:32:28.931Z,20.77
2018-03-06T00:34:56.535Z,26.83
2018-03-06T00:37:24.392Z,24.27
2018-03-06T00:39:52.068Z,21.60
2018-03-06T00:42:19.944Z,24.30
2018-03-06T00:44:47.507Z,27.17
2018-03-06T00:47:15.287Z,24.80
2018-03-06T00:49:43.080Z,20.60
2018-03-06T00:52:11.083Z,24.93
2018-03-06T00:54:39.148Z,21.23
2018-03-06T00:57:07.068Z,26.63
2018-03-06T00:59:35.261Z,22.10
2018-03-06T01:02:02.980Z,23.95
2018-03-06T01:04:30.747Z,20.03
2018-03-06T01:06:58.334Z,23.33
2018-03-06T01:09:26.045Z,23.20
2018-03-06T01:11:53.632Z,23.33
2018-03-06T01:14:21.406Z,27.23
2018-03-06T01:16:49.690Z,26.17
2018-03-06T01:19:17.392Z,23.70
2018-03-06T01:21:45.227Z,22.17
2018-03-06T01:24:12.803Z,28.97
2018-03-06T01:26:40.601Z,25.30
2018-03-06T01:29:08.262Z,23.95
2018-03-06T01:31:35.968Z,19.40
2018-03-06T01:34:03.778Z,23.63
2018-03-06T01:36:31.605Z,21.87
2018-03-06T01:38:59.209Z,23.30
2018-03-06T01:41:27.549Z,24.07
2018-03-06T01:43:55.293Z,18.70
2018-03-06T01:46:23.172Z,26.43
2018-03-06T01:48:50.802Z,21.60
2018-03-06T01:51:18.444Z,22.23
2018-03-06T01:53:46.019Z,20.17
2018-03-06T01:56:13.568Z,23.40
2018-03-06T01:58:41.234Z,25.10
2018-03-06T02:01:09.036Z,25.80
2018-03-06T02:03:36.834Z,25.50
2018-03-06T02:06:05.298Z,28.40
2018-03-06T02:08:33.850Z,25.10
2018-03-06T02:11:02.509Z,22.87
2018-03-06T02:13:30.115Z,33.10
2018-03-06T02:15:58.658Z,33.17
2018-03-06T02:18:26.384Z,27.20
2018-03-06T02:20:54.057Z,34.45
2018-03-06T02:23:22.413Z,33.17
2018-03-06T02:25:50.178Z,31.57
2018-03-06T02:28:17.863Z,31.80
2018-03-06T02:30:45.574Z,32.00
2018-03-06T02:33:13.443Z,27.57
2018-03-06T02:35:41.099Z,32.30
2018-03-06T02:38:08.772Z,30.92
2018-03-06T02:40:36.513Z,28.27
2018-03-06T02:43:04.103Z,27.15
2018-03-06T02:45:31.778Z,24.75
2018-03-06T02:47:59.773Z,32.70
2018-03-06T02:50:28.158Z,37.27
2018-03-06T02:52:55.889Z,33.28
2018-03-06T02:55:23.560Z,30.00
2018-03-06T02:57:51.131Z,32.88
2018-03-06T03:00:18.877Z,33.53
2018-03-06T03:02:46.430Z,39.00
2018-03-06T03:05:14.323Z,38.10
2018-03-06T03:07:42.130Z,34.93
2018-03-06T03:10:09.755Z,33.88
2018-03-06T03:12:37.704Z,34.53
2018-03-06T03:15:05.296Z,31.93
2018-03-06T03:17:32.954Z,38.47
2018-03-06T03:20:00.774Z,34.77
2018-03-06T03:22:28.353Z,36.80
2018-03-06T03:24:56.432Z,33.70
2018-03-06T03:27:24.013Z,35.00
2018-03-06T03:29:51.762Z,34.80
2018-03-06T03:32:19.478Z,32.80
2018-03-06T03:34:47.277Z,35.00
2018-03-06T03:37:16.271Z,52.43
2018-03-06T03:39:44.014Z,34.87
2018-03-06T03:42:12.679Z,37.70
2018-03-06T03:44:40.247Z,32.60
2018-03-06T03:47:08.059Z,32.83
2018-03-06T03:49:35.766Z,33.40
2018-03-06T03:52:03.675Z,32.80
2018-03-06T03:54:31.249Z,36.60
2018-03-06T03:56:58.869Z,37.73
2018-03-06T03:59:26.558Z,37.13
2018-03-06T04:01:54.319Z,48.97
2018-03-06T04:04:22.558Z,39.27
2018-03-06T04:06:50.148Z,37.73
2018-03-06T04:09:17.924Z,42.65
2018-03-06T04:11:45.561Z,40.23
2018-03-06T04:14:13.423Z,32.37
2018-03-06T04:16:41.239Z,41.90
2018-03-06T04:19:08.849Z,38.70
2018-03-06T04:21:36.588Z,44.87
2018-03-06T04:24:04.204Z,37.50
2018-03-06T04:26:31.840Z,47.30
2018-03-06T04:28:59.417Z,39.37
2018-03-06T04:31:26.997Z,38.20
2018-03-06T04:33:54.978Z,37.40
2018-03-06T04:36:22.840Z,41.92
2018-03-06T04:38:50.709Z,43.93
2018-03-06T04:41:18.339Z,35.60
2018-03-06T04:43:46.029Z,43.67
2018-03-06T04:46:13.934Z,51.73
2018-03-06T04:48:41.702Z,43.42
2018-03-06T04:51:09.428Z,45.20
2018-03-06T04:53:37.329Z,40.83
2018-03-06T04:56:04.985Z,36.70
2018-03-06T04:58:32.552Z,43.33
2018-03-06T05:01:00.178Z,45.70
2018-03-06T05:03:28.144Z,44.40
2018-03-06T05:05:55.762Z,44.83
2018-03-06T05:08:23.327Z,48.17
2018-03-06T05:10:50.964Z,59.73
2018-03-06T05:13:18.617Z,54.50
2018-03-06T05:15:46.842Z,46.17
2018-03-06T05:18:14.447Z,51.07
2018-03-06T05:20:42.189Z,46.67
2018-03-06T05:23:09.908Z,47.93
2018-03-06T05:25:37.609Z,47.83
2018-03-06T05:28:05.152Z,50.27
2018-03-06T05:30:32.804Z,45.37
2018-03-06T05:33:00.365Z,47.73
2018-03-06T05:35:27.950Z,40.10
2018-03-06T05:37:55.806Z,52.90
2018-03-06T05:40:24.404Z,44.60
2018-03-06T05:42:51.990Z,47.23
2018-03-06T05:45:19.949Z,48.03
2018-03-06T05:47:47.747Z,45.47
2018-03-06T05:50:15.402Z,45.97
2018-03-06T05:52:43.109Z,45.97
2018-03-06T05:55:10.675Z,46.53
2018-03-06T05:57:38.234Z,42.72
2018-03-06T06:00:05.809Z,43.47
2018-03-06T06:02:33.476Z,91.23
2018-03-06T06:05:01.171Z,49.90
2018-03-06T06:07:28.952Z,45.40
2018-03-06T06:09:56.699Z,53.27
2018-03-06T06:12:24.409Z,49.40
2018-03-06T06:14:52.004Z,46.63
2018-03-06T06:17:20.862Z,46.03
2018-03-06T06:19:48.543Z,44.40
2018-03-06T06:22:16.334Z,51.20
2018-03-06T06:24:44.217Z,51.03
2018-03-06T06:27:12.782Z,44.47
2018-03-06T06:29:40.472Z,53.63
2018-03-06T06:32:08.167Z,52.57
2018-03-06T06:34:35.814Z,51.87
2018-03-06T06:37:03.529Z,52.78
2018-03-06T06:39:31.093Z,51.13
2018-03-06T06:41:58.762Z,59.47
2018-03-06T06:44:26.398Z,52.27
2018-03-06T06:46:53.918Z,53.70
2018-03-06T06:49:21.618Z,49.43
2018-03-06T06:51:49.509Z,48.37
2018-03-06T06:54:17.293Z,56.33
2018-03-06T06:56:44.844Z,49.25
2018-03-06T06:59:12.561Z,53.17
2018-03-06T07:01:40.457Z,54.57
2018-03-06T07:04:08.188Z,50.77
2018-03-06T07:06:36.069Z,60.33
2018-03-06T07:09:03.707Z,54.77
2018-03-06T07:11:31.448Z,47.03
2018-03-06T07:13:59.167Z,57.43
2018-03-06T07:16:26.758Z,54.10
2018-03-06T07:18:54.537Z,54.73
2018-03-06T07:21:22.205Z,54.27
2018-03-06T07:23:49.867Z,57.90
2018-03-06T07:26:17.512Z,53.13
2018-03-06T07:28:45.342Z,60.37
2018-03-06T07:31:12.884Z,80.57
2018-03-06T07:33:40.534Z,61.00
2018-03-06T07:36:08.320Z,58.20
2018-03-06T07:38:36.018Z,58.22
2018-03-06T07:41:03.783Z,62.53
2018-03-06T07:43:31.368Z,58.03
2018-03-06T07:45:58.897Z,57.03
2018-03-06T07:48:26.554Z,62.40
2018-03-06T07:50:54.315Z,67.57
2018-03-06T07:53:21.993Z,65.77
2018-03-06T07:55:49.509Z,62.50
2018-03-06T07:58:17.419Z,63.50
2018-03-06T08:00:45.151Z,72.53
2018-03-06T08:03:13.978Z,69.03
2018-03-06T08:05:41.535Z,61.83
2018-03-06T08:08:09.272Z,62.50
2018-03-06T08:10:36.866Z,58.47
2018-03-06T08:13:04.552Z,64.90
2018-03-06T08:15:32.213Z,65.37
2018-03-06T08:17:59.790Z,92.43
2018-03-06T08:20:27.542Z,113.50
2018-03-06T08:22:55.088Z,93.80
2018-03-06T08:25:22.728Z,61.80
2018-03-06T08:27:50.572Z,57.33
2018-03-06T08:30:18.584Z,57.10
2018-03-06T08:32:46.433Z,55.30
2018-03-06T08:35:14.049Z,51.90
2018-03-06T08:37:41.982Z,53.70
2018-03-06T08:40:10.229Z,50.37
2018-03-06T08:42:38.102Z,52.00
2018-03-06T08:45:05.752Z,53.87
2018-03-06T08:47:33.633Z,55.93
2018-03-06T08:50:01.345Z,52.20
2018-03-06T08:52:29.185Z,49.60
2018-03-06T08:54:56.823Z,50.83
2018-03-06T08:57:24.624Z,49.50
2018-03-06T08:59:53.248Z,55.07
2018-03-06T09:02:20.849Z,53.37
2018-03-06T09:04:49.252Z,48.53
2018-03-06T09:07:17.038Z,50.07
2018-03-06T09:09:44.793Z,49.03
2018-03-06T09:12:12.473Z,52.13
2018-03-06T09:14:40.683Z,54.13
2018-03-06T09:17:08.258Z,59.33
2018-03-06T09:19:36.108Z,58.87
2018-03-06T09:22:04.274Z,52.70
2018-03-06T09:24:32.698Z,60.47
2018-03-06T09:27:00.314Z,59.60
2018-03-06T09:29:27.859Z,61.87
2018-03-06T09:31:55.525Z,66.67
2018-03-06T09:34:23.079Z,61.03
2018-03-06T09:36:50.654Z,70.53
2018-03-06T09:39:18.286Z,66.10
2018-03-06T09:41:45.889Z,64.07
2018-03-06T09:44:13.603Z,64.30
2018-03-06T09:46:41.259Z,62.67
2018-03-06T09:49:09.625Z,66.68
2018-03-06T09:51:37.263Z,63.00
2018-03-06T09:54:04.819Z,69.03
2018-03-06T09:56:32.484Z,63.77
2018-03-06T09:59:00.173Z,69.83
2018-03-06T10:01:28.339Z,61.00
2018-03-06T10:03:55.962Z,64.10
2018-03-06T10:06:23.793Z,71.70
2018-03-06T10:08:51.342Z,66.72
2018-03-06T10:11:18.882Z,63.97
2018-03-06T10:13:47.033Z,64.43
2018-03-06T10:16:14.610Z,67.37
2018-03-06T10:18:42.202Z,70.70
2018-03-06T10:21:09.753Z,68.18
2018-03-06T10:23:37.414Z,60.77
2018-03-06T10:26:06.083Z,61.17
2018-03-06T10:28:33.830Z,63.30
2018-03-06T10:31:01.547Z,58.97
2018-03-06T10:33:29.097Z,72.97
2018-03-06T10:35:57.037Z,67.57
2018-03-06T10:38:25.412Z,71.03
2018-03-06T10:40:53.031Z,60.93
2018-03-06T10:43:20.638Z,60.70
2018-03-06T10:45:48.559Z,68.13
2018-03-06T10:48:16.372Z,61.50
2018-03-06T10:50:44.190Z,57.83
2018-03-06T10:53:11.832Z,68.10
2018-03-06T10:55:39.598Z,64.70
2018-03-06T10:58:07.163Z,62.03
2018-03-06T11:00:47.888Z,57.27
2018-03-06T11:03:22.282Z,63.87
2018-03-06T11:05:49.970Z,65.83
2018-03-06T11:08:18.371Z,62.33
2018-03-06T11:10:46.079Z,62.00
2018-03-06T11:13:13.662Z,68.67
2018-03-06T11:15:41.413Z,60.30
2018-03-06T11:18:09.393Z,74.33
2018-03-06T11:20:37.059Z,62.33
2018-03-06T11:23:04.778Z,62.43
2018-03-06T11:25:32.626Z,64.70
2018-03-06T11:28:00.284Z,69.90
2018-03-06T11:30:28.935Z,73.90
2018-03-06T11:32:56.710Z,60.67
2018-03-06T11:35:24.614Z,66.37
2018-03-06T11:37:52.364Z,68.20
2018-03-06T11:40:20.024Z,62.87
2018-03-06T11:42:47.773Z,64.87
2018-03-06T11:45:15.630Z,69.63
2018-03-06T11:47:43.244Z,64.27
2018-03-06T11:50:11.039Z,66.03
2018-03-06T11:52:38.630Z,65.40
2018-03-06T11:55:06.329Z,63.17
2018-03-06T11:57:33.907Z,70.63
2018-03-06T12:00:01.556Z,66.60
2018-03-06T12:02:29.458Z,69.97
2018-03-06T12:04:57.285Z,72.40
2018-03-06T12:07:24.988Z,67.70
2018-03-06T12:09:52.620Z,62.07
2018-03-06T12:12:20.181Z,65.40
2018-03-06T12:14:47.788Z,66.60
2018-03-06T12:17:15.443Z,67.40
2018-03-06T12:19:43.039Z,78.40
2018-03-06T12:22:10.808Z,68.27
2018-03-06T12:24:38.474Z,65.10
2018-03-06T12:27:06.171Z,62.40
2018-03-06T12:29:34.651Z,73.17
2018-03-06T12:32:02.402Z,64.37
2018-03-06T12:34:30.004Z,64.10
2018-03-06T12:36:57.718Z,63.80
2018-03-06T12:39:25.774Z,81.80
2018-03-06T12:41:53.597Z,64.10
2018-03-06T12:44:21.299Z,66.67
2018-03-06T12:46:48.854Z,69.00
2018-03-06T12:49:16.867Z,64.87
2018-03-06T12:51:44.719Z,67.70
2018-03-06T12:54:13.547Z,75.93
2018-03-06T12:56:41.439Z,70.05
2018-03-06T12:59:09.761Z,75.40
2018-03-06T13:01:37.605Z,66.97
2018-03-06T13:04:05.240Z,72.43
2018-03-06T13:06:33.253Z,76.53
2018-03-06T13:09:01.059Z,70.78
2018-03-06T13:11:28.781Z,74.87
2018-03-06T13:13:56.479Z,73.37
2018-03-06T13:16:24.168Z,75.07
2018-03-06T13:18:51.840Z,84.43
2018-03-06T13:21:19.443Z,86.13
2018-03-06T13:23:47.063Z,78.97
2018-03-06T13:26:14.636Z,91.40
2018-03-06T13:28:42.292Z,80.13
2018-03-06T13:31:10.883Z,75.70
2018-03-06T13:33:38.878Z,92.43
2018-03-06T13:36:06.590Z,81.93
2018-03-06T13:38:34.619Z,76.62
2018-03-06T13:41:02.373Z,86.75
2018-03-06T13:43:30.324Z,70.10
2018-03-06T13:45:57.927Z,74.33
2018-03-06T13:48:25.668Z,88.83
2018-03-06T13:50:54.327Z,78.10
2018-03-06T13:53:22.590Z,76.57
2018-03-06T13:55:50.283Z,101.20
2018-03-06T13:58:18.133Z,75.67
2018-03-06T14:00:45.702Z,89.00
2018-03-06T14:03:13.418Z,82.80
2018-03-06T14:05:41.340Z,78.72
2018-03-06T14:08:08.964Z,74.25
2018-03-06T14:10:37.510Z,76.68
2018-03-06T14:13:05.183Z,76.67
2018-03-06T14:15:33.267Z,78.53
2018-03-06T14:18:01.758Z,75.23
2018-03-06T14:20:29.499Z,70.40
2018-03-06T14:22:57.102Z,65.65
2018-03-06T14:25:24.781Z,78.87
2018-03-06T14:27:52.466Z,69.40
2018-03-06T14:30:20.268Z,76.40
2018-03-06T14:32:47.999Z,85.43
2018-03-06T14:35:15.708Z,97.33
2018-03-06T14:37:43.503Z,112.60
2018-03-06T14:40:11.172Z,74.87
2018-03-06T14:42:38.783Z,71.90
2018-03-06T14:45:06.429Z,67.00
2018-03-06T14:47:34.103Z,77.57
2018-03-06T14:50:02.407Z,66.10
2018-03-06T14:52:30.029Z,73.12
2018-03-06T14:54:58.020Z,70.20
2018-03-06T14:57:25.678Z,90.93
2018-03-06T14:59:53.230Z,61.60
2018-03-06T15:02:20.775Z,73.80
2018-03-06T15:04:48.384Z,74.53
2018-03-06T15:07:16.050Z,70.43
2018-03-06T15:09:43.598Z,76.70
2018-03-06T15:12:12.127Z,76.22
2018-03-06T15:14:39.689Z,80.90
2018-03-06T15:17:07.368Z,75.80
2018-03-06T15:19:35.139Z,75.40
2018-03-06T15:22:02.678Z,78.07
2018-03-06T15:24:36.252Z,75.63
2018-03-06T15:27:03.812Z,77.23
2018-03-06T15:29:31.530Z,74.17
2018-03-06T15:31:59.252Z,77.00
2018-03-06T15:34:27.070Z,72.45
2018-03-06T15:36:55.704Z,79.60
2018-03-06T15:39:23.289Z,73.20
2018-03-06T15:41:51.004Z,84.27
2018-03-06T15:44:18.684Z,81.10
2018-03-06T15:46:46.338Z,83.50
2018-03-06T15:49:14.409Z,77.22
2018-03-06T15:51:42.250Z,91.72
2018-03-06T15:54:10.013Z,69.17
2018-03-06T15:56:37.814Z,82.93
2018-03-06T15:59:05.708Z,79.17
2018-03-06T16:01:33.423Z,101.30
2018-03-06T16:04:01.709Z,89.70
2018-03-06T16:06:29.354Z,88.23
2018-03-06T16:08:56.984Z,86.03
2018-03-06T16:11:24.670Z,80.00
2018-03-06T16:13:52.288Z,84.13
2018-03-06T16:16:20.103Z,68.67
2018-03-06T16:18:47.863Z,76.50
2018-03-06T16:21:15.560Z,65.97
2018-03-06T16:23:43.529Z,66.87
2018-03-06T16:26:11.290Z,76.77
2018-03-06T16:28:39.433Z,67.23
2018-03-06T16:31:07.064Z,67.20
2018-03-06T16:33:34.711Z,73.03
2018-03-06T16:36:02.409Z,68.73
2018-03-06T16:38:30.384Z,80.30
2018-03-06T16:40:58.187Z,81.43
2018-03-06T16:43:25.884Z,86.73
2018-03-06T16:45:53.593Z,71.60
2018-03-06T16:48:21.353Z,68.73
2018-03-06T16:50:49.048Z,61.25
2018-03-06T16:53:16.724Z,62.30
2018-03-06T16:55:44.404Z,69.57
2018-03-06T16:58:13.039Z,74.60
2018-03-06T17:00:40.651Z,62.00
2018-03-06T17:03:08.258Z,63.97
2018-03-06T17:05:35.849Z,90.65
2018-03-06T17:08:03.427Z,78.83
2018-03-06T17:10:31.144Z,70.13
2018-03-06T17:12:59.117Z,64.53
2018-03-06T17:15:26.808Z,78.77
2018-03-06T17:17:55.563Z,60.00
2018-03-06T17:20:23.285Z,65.00
2018-03-06T17:22:51.053Z,62.13
2018-03-06T17:25:18.669Z,58.97
2018-03-06T17:27:46.380Z,57.90
2018-03-06T17:30:14.145Z,56.03
2018-03-06T17:32:41.799Z,63.67
2018-03-06T17:35:09.671Z,55.43
2018-03-06T17:37:37.505Z,60.40
2018-03-06T17:40:05.313Z,51.97
2018-03-06T17:42:33.185Z,60.90
2018-03-06T17:45:01.555Z,68.00
2018-03-06T17:47:29.127Z,67.20
2018-03-06T17:49:57.230Z,57.47
2018-03-06T17:52:25.173Z,59.20
2018-03-06T17:54:52.747Z,52.87
2018-03-06T17:57:20.341Z,57.30
2018-03-06T17:59:48.038Z,69.62
2018-03-06T18:02:15.928Z,56.27
2018-03-06T18:04:43.504Z,62.80
2018-03-06T18:07:11.310Z,73.07
2018-03-06T18:09:38.984Z,64.75
2018-03-06T18:12:06.680Z,67.27
2018-03-06T18:14:34.384Z,69.77
2018-03-06T18:17:02.090Z,63.63
2018-03-06T18:19:29.774Z,67.00
2018-03-06T18:21:57.594Z,60.07
2018-03-06T18:24:25.260Z,57.80
2018-03-06T18:26:52.860Z,62.13
2018-03-06T18:29:21.297Z,54.90
2018-03-06T18:31:49.040Z,68.30
2018-03-06T18:34:17.300Z,57.63
2018-03-06T18:36:44.970Z,54.17
2018-03-06T18:39:12.660Z,58.40
2018-03-06T18:41:40.430Z,64.40
2018-03-06T18:44:08.082Z,56.70
2018-03-06T18:46:35.988Z,55.97
2018-03-06T18:49:03.724Z,59.13
2018-03-06T18:51:31.511Z,65.20
2018-03-06T18:53:59.106Z,64.00
2018-03-06T18:56:26.729Z,59.87
2018-03-06T18:58:54.505Z,64.83
2018-03-06T19:04:49.429Z,64.80
2018-03-06T19:07:17.184Z,73.20
2018-03-06T19:09:44.817Z,65.23
2018-03-06T19:12:12.517Z,72.30
2018-03-06T19:14:40.173Z,60.40
2018-03-06T19:17:07.828Z,60.47
2018-03-06T19:19:35.697Z,62.87
2018-03-06T19:22:04.312Z,60.43
2018-03-06T19:24:31.970Z,58.93
2018-03-06T19:26:59.572Z,68.80
2018-03-06T19:29:27.354Z,71.63
2018-03-06T19:31:55.052Z,57.60
2018-03-06T19:34:22.702Z,68.00
2018-03-06T19:36:50.445Z,64.87
2018-03-06T19:39:18.205Z,58.50
2018-03-06T19:41:45.792Z,88.93
2018-03-06T19:44:13.640Z,64.37
2018-03-06T19:46:41.729Z,72.23
2018-03-06T19:49:09.359Z,243.40
2018-03-06T19:51:37.067Z,59.50
2018-03-06T19:54:04.759Z,58.37
2018-03-06T19:56:32.527Z,61.70
2018-03-06T19:59:00.132Z,68.63
2018-03-06T20:01:28.472Z,65.23
2018-03-06T20:03:56.169Z,63.90
2018-03-06T20:06:23.789Z,61.60
2018-03-06T20:08:51.644Z,69.03
2018-03-06T20:11:19.354Z,72.33
2018-03-06T20:13:46.955Z,87.10
2018-03-06T20:16:14.848Z,66.40
2018-03-06T20:18:42.650Z,60.27
2018-03-06T20:21:10.223Z,53.17
2018-03-06T20:23:37.948Z,60.63
2018-03-06T20:26:05.513Z,64.53
2018-03-06T20:28:33.093Z,59.60
2018-03-06T20:31:06.633Z,74.77
2018-03-06T20:33:34.193Z,59.17
2018-03-06T20:36:01.903Z,52.73
2018-03-06T20:38:35.252Z,57.47
2018-03-06T20:41:03.028Z,61.13
2018-03-06T20:43:30.949Z,53.50
2018-03-06T20:46:04.270Z,50.47
2018-03-06T20:48:31.885Z,54.73
2018-03-06T20:50:59.553Z,65.63
2018-03-06T20:53:32.828Z,60.13
2018-03-06T20:56:00.412Z,58.17
2018-03-06T20:58:28.079Z,58.77
2018-03-06T21:00:55.614Z,57.00
2018-03-06T21:03:23.363Z,57.70
2018-03-06T21:05:51.692Z,54.03
2018-03-06T21:08:19.654Z,52.77
2018-03-06T21:10:47.255Z,60.07
2018-03-06T21:13:15.153Z,54.60
2018-03-06T21:15:42.895Z,53.10
2018-03-06T21:18:10.461Z,50.50
2018-03-06T21:20:38.161Z,55.23
2018-03-06T21:23:05.728Z,53.40
2018-03-06T21:25:34.210Z,55.07
2018-03-06T21:28:01.927Z,58.73
2018-03-06T21:30:29.569Z,68.50
2018-03-06T21:32:57.104Z,53.90
2018-03-06T21:35:25.513Z,59.37
2018-03-06T21:37:53.288Z,65.40
2018-03-06T21:40:20.838Z,62.03
2018-03-06T21:42:48.423Z,60.30
2018-03-06T21:45:16.141Z,75.53
2018-03-06T21:47:43.757Z,57.73
2018-03-06T21:50:11.489Z,56.23
2018-03-06T21:52:39.173Z,59.43
2018-03-06T21:55:06.722Z,56.23
2018-03-06T21:57:34.373Z,57.00
2018-03-06T22:00:02.009Z,57.67
2018-03-06T22:02:29.582Z,65.07
2018-03-06T22:04:57.177Z,61.70
2018-03-06T22:07:24.815Z,58.77
2018-03-06T22:09:52.613Z,59.60
2018-03-06T22:12:20.287Z,56.40
2018-03-06T22:14:48.068Z,54.73
2018-03-06T22:17:15.661Z,56.37
2018-03-06T22:19:43.328Z,58.43
2018-03-06T22:22:11.127Z,66.00
2018-03-06T22:24:38.752Z,59.13
2018-03-06T22:27:06.441Z,55.10
2018-03-06T22:29:34.165Z,53.90
2018-03-06T22:32:02.605Z,58.53
2018-03-06T22:34:30.169Z,52.73
2018-03-06T22:36:57.825Z,58.67
2018-03-06T22:39:25.509Z,57.77
2018-03-06T22:41:53.042Z,51.23
2018-03-06T22:44:20.627Z,60.50
2018-03-06T22:46:48.182Z,62.90
2018-03-06T22:49:15.883Z,62.30
2018-03-06T22:51:43.430Z,58.37
2018-03-06T22:54:11.024Z,53.37
2018-03-06T22:56:38.943Z,50.77
2018-03-06T22:59:06.563Z,51.07
2018-03-06T23:01:34.138Z,59.30
2018-03-06T23:04:01.937Z,51.00
2018-03-06T23:06:29.517Z,56.77
2018-03-06T23:08:57.066Z,56.70
2018-03-06T23:11:24.812Z,59.17
2018-03-06T23:13:52.473Z,58.63
2018-03-06T23:16:20.049Z,58.73
2018-03-06T23:18:47.628Z,52.00
2018-03-06T23:21:15.251Z,52.97
2018-03-06T23:23:42.826Z,49.97
2018-03-06T23:26:10.668Z,48.40
2018-03-06T23:28:38.260Z,52.87
2018-03-06T23:31:05.942Z,57.47
2018-03-06T23:33:33.492Z,50.90
2018-03-06T23:36:01.053Z,49.77
2018-03-06T23:38:28.749Z,42.20
2018-03-06T23:40:56.308Z,43.20
2018-03-06T23:43:23.889Z,51.30
2018-03-06T23:45:51.475Z,61.17
2018-03-06T23:48:19.409Z,52.73
2018-03-06T23:50:47.067Z,57.63
2018-03-06T23:53:14.599Z,56.60
2018-03-06T23:55:42.298Z,51.77
2018-03-06T23:58:09.853Z,55.53
